Time;durP1;ratioP1;P1;durP2;ratioP2;P2;SDS_P1;SDS_P2;PMS_P1;PMS_P2;Temp;Humidity;BMP_temperature;BMP_pressure;BME280_temperature;BME280_humidity;BME280_pressure;Samples;Min_cycle;Max_cycle;Signal;HPM_P1;HPM_P2
2022/09/14 00:01:59;;;;;;;6.40;5.80;;;;;;;;;;10270342;28;20424;-80
2022/09/14 00:07:01;;;;;;;6.90;5.38;;;;;;;;;;10272980;28;20411;-82
2022/09/14 00:12:03;;;;;;;6.05;5.53;;;;;;;;;;10270393;28;20997;-82
2022/09/14 00:17:06;;;;;;;6.20;5.60;;;;;;;;;;10271875;28;20418;-80
2022/09/14 00:22:08;;;;;;;5.90;5.40;;;;;;;;;;10270381;28;20545;-82
2022/09/14 00:27:10;;;;;;;5.80;5.30;;;;;;;;;;10269146;28;20433;-80
2022/09/14 00:32:13;;;;;;;7.65;5.85;;;;;;;;;;10265418;28;20487;-81
2022/09/14 00:37:15;;;;;;;5.93;5.43;;;;;;;;;;10269356;28;20403;-80
2022/09/14 00:42:18;;;;;;;6.13;5.63;;;;;;;;;;10275161;28;20504;-81
2022/09/14 00:47:21;;;;;;;9.93;5.90;;;;;;;;;;10273001;28;20415;-80
2022/09/14 00:52:26;;;;;;;6.30;5.70;;;;;;;;;;10272261;28;20437;-79
2022/09/14 00:57:31;;;;;;;6.07;5.57;;;;;;;;;;10272966;28;20419;-81
2022/09/14 01:02:34;;;;;;;8.27;6.07;;;;;;;;;;10272802;28;20944;-80
2022/09/14 01:07:50;;;;;;;7.15;5.90;;;;;;;;;;10272748;28;20415;-80
2022/09/14 01:13:05;;;;;;;6.10;5.50;;;;;;;;;;10272345;28;20431;-78
2022/09/14 01:18:15;;;;;;;5.90;5.40;;;;;;;;;;10268132;28;20427;-81
2022/09/14 01:23:22;;;;;;;6.05;5.45;;;;;;;;;;10267797;28;20403;-81
2022/09/14 01:28:31;;;;;;;5.78;5.25;;;;;;;;;;10269325;28;20426;-80
2022/09/14 01:33:39;;;;;;;6.90;6.00;;;;;;;;;;10270169;28;20442;-80
2022/09/14 01:38:44;;;;;;;6.28;5.43;;;;;;;;;;10269192;28;20406;-81
2022/09/14 01:43:52;;;;;;;6.37;5.40;;;;;;;;;;10299647;28;20396;-80
2022/09/14 01:49:01;;;;;;;6.22;5.35;;;;;;;;;;10319650;28;20455;-81
2022/09/14 01:54:07;;;;;;;6.77;5.70;;;;;;;;;;10318756;28;20431;-80
2022/09/14 01:59:15;;;;;;;6.20;5.63;;;;;;;;;;10315569;28;20454;-81
2022/09/14 02:04:21;;;;;;;6.47;5.55;;;;;;;;;;10311983;28;20492;-80
2022/09/14 02:09:25;;;;;;;7.78;5.97;;;;;;;;;;10319179;28;20413;-81
2022/09/14 02:14:29;;;;;;;6.68;6.07;;;;;;;;;;10318308;28;20428;-81
2022/09/14 02:19:35;;;;;;;6.40;5.80;;;;;;;;;;10320653;28;20960;-81
2022/09/14 02:24:37;;;;;;;6.68;5.90;;;;;;;;;;10315949;28;20405;-81
2022/09/14 02:29:40;;;;;;;6.18;5.68;;;;;;;;;;10326577;28;20896;-79
2022/09/14 02:34:51;;;;;;;6.80;5.93;;;;;;;;;;10326218;28;20434;-81
2022/09/14 02:39:59;;;;;;;6.47;5.88;;;;;;;;;;10326240;28;20415;-80
2022/09/14 02:45:12;;;;;;;6.53;5.80;;;;;;;;;;10325482;28;20404;-81
2022/09/14 02:50:20;;;;;;;6.45;5.57;;;;;;;;;;10324737;28;20404;-81
2022/09/14 02:55:25;;;;;;;6.67;5.97;;;;;;;;;;10323532;28;20977;-80
2022/09/14 03:00:30;;;;;;;6.15;5.57;;;;;;;;;;10299360;28;20510;-81
2022/09/14 03:05:32;;;;;;;6.25;5.75;;;;;;;;;;10294587;28;20489;-80
2022/09/14 03:10:34;;;;;;;6.00;5.40;;;;;;;;;;10311492;28;20409;-80
2022/09/14 03:15:38;;;;;;;7.00;5.50;;;;;;;;;;10326770;28;20798;-81
2022/09/14 03:20:40;;;;;;;6.47;5.93;;;;;;;;;;10288870;28;20430;-81
2022/09/14 03:25:43;;;;;;;6.63;5.35;;;;;;;;;;10327206;28;20401;-81
2022/09/14 03:30:46;;;;;;;11.87;6.10;;;;;;;;;;10322037;28;20417;-81
2022/09/14 03:35:48;;;;;;;6.32;5.72;;;;;;;;;;10296483;28;20805;-80
2022/09/14 03:40:50;;;;;;;6.00;5.40;;;;;;;;;;10302180;28;20499;-81
2022/09/14 03:45:53;;;;;;;6.70;6.10;;;;;;;;;;10325637;28;20413;-80
2022/09/14 03:50:55;;;;;;;6.57;6.00;;;;;;;;;;10301448;28;20506;-81
2022/09/14 03:55:57;;;;;;;7.40;6.25;;;;;;;;;;10289696;28;20956;-81
2022/09/14 04:01:05;;;;;;;7.75;5.88;;;;;;;;;;10287864;28;20415;-80
2022/09/14 04:06:07;;;;;;;7.32;5.65;;;;;;;;;;10289021;28;20457;-80
2022/09/14 04:11:11;;;;;;;6.20;5.60;;;;;;;;;;10286570;28;20433;-81
2022/09/14 04:16:14;;;;;;;6.93;5.87;;;;;;;;;;10285315;28;20440;-81
2022/09/14 04:21:18;;;;;;;6.90;6.20;;;;;;;;;;10291567;28;21347;-80
2022/09/14 04:26:21;;;;;;;6.60;6.00;;;;;;;;;;10305857;28;20963;-80
2022/09/14 04:31:25;;;;;;;6.78;6.18;;;;;;;;;;10306889;28;20812;-80
2022/09/14 04:36:29;;;;;;;7.07;5.80;;;;;;;;;;10304694;28;21118;-78
2022/09/14 04:41:31;;;;;;;7.35;6.00;;;;;;;;;;10309876;28;20503;-80
2022/09/14 04:46:35;;;;;;;7.45;6.53;;;;;;;;;;10305803;28;20405;-80
2022/09/14 04:51:37;;;;;;;7.22;6.22;;;;;;;;;;10294496;28;20412;-80
2022/09/14 04:56:39;;;;;;;8.77;6.72;;;;;;;;;;10301124;28;20533;-78
2022/09/14 05:01:44;;;;;;;7.60;6.80;;;;;;;;;;10285163;28;20449;-82
2022/09/14 05:06:46;;;;;;;7.60;6.80;;;;;;;;;;10273364;28;20410;-81
2022/09/14 05:11:50;;;;;;;8.25;6.90;;;;;;;;;;10281831;28;20410;-82
2022/09/14 05:16:55;;;;;;;12.38;7.40;;;;;;;;;;10285641;28;20533;-81
2022/09/14 05:21:57;;;;;;;8.35;7.07;;;;;;;;;;10278849;28;20463;-80
2022/09/14 05:26:58;;;;;;;10.65;7.50;;;;;;;;;;10281062;28;20425;-79
2022/09/14 05:32:02;;;;;;;10.63;7.43;;;;;;;;;;10280820;28;20490;-80
2022/09/14 05:37:04;;;;;;;10.13;7.70;;;;;;;;;;10282783;28;20521;-81
2022/09/14 05:42:06;;;;;;;9.17;8.27;;;;;;;;;;10283369;28;20448;-81
2022/09/14 05:47:09;;;;;;;10.40;8.43;;;;;;;;;;10290314;28;20771;-81
2022/09/14 05:52:11;;;;;;;11.65;10.52;;;;;;;;;;10289133;28;20416;-80
2022/09/14 05:57:13;;;;;;;8.00;6.72;;;;;;;;;;10290855;28;20430;-80
2022/09/14 06:02:16;;;;;;;7.40;6.70;;;;;;;;;;10290153;28;20841;-81
2022/09/14 06:07:18;;;;;;;9.30;6.40;;;;;;;;;;10289288;28;20495;-81
2022/09/14 06:12:19;;;;;;;7.75;6.93;;;;;;;;;;10309532;28;20495;-81
2022/09/14 06:17:23;;;;;;;8.10;7.40;;;;;;;;;;10318942;28;20427;-81
2022/09/14 06:22:24;;;;;;;8.87;7.93;;;;;;;;;;10319406;28;20463;-81
2022/09/14 06:27:27;;;;;;;11.25;7.82;;;;;;;;;;10319662;28;20417;-78
2022/09/14 06:32:31;;;;;;;9.95;7.68;;;;;;;;;;10319191;28;20400;-81
2022/09/14 06:37:33;;;;;;;14.63;8.40;;;;;;;;;;10317432;28;20511;-79
2022/09/14 06:42:35;;;;;;;9.37;7.73;;;;;;;;;;10313896;28;20495;-80
2022/09/14 06:47:38;;;;;;;9.60;8.07;;;;;;;;;;10314623;28;20402;-81
2022/09/14 06:52:40;;;;;;;8.70;7.80;;;;;;;;;;10325862;22;20426;-86
2022/09/14 06:57:42;;;;;;;8.75;7.75;;;;;;;;;;10310154;28;20424;-86
2022/09/14 07:02:46;;;;;;;10.07;6.80;;;;;;;;;;10307088;28;20488;-86
2022/09/14 07:07:51;;;;;;;8.20;7.40;;;;;;;;;;10321658;28;20947;-86
2022/09/14 07:12:53;;;;;;;8.52;7.38;;;;;;;;;;10294377;28;20418;-86
2022/09/14 07:17:57;;;;;;;7.68;6.32;;;;;;;;;;10296347;28;20848;-86
2022/09/14 07:22:59;;;;;;;9.87;6.33;;;;;;;;;;10290199;28;20427;-86
2022/09/14 07:28:01;;;;;;;7.90;5.80;;;;;;;;;;10312770;28;20489;-85
2022/09/14 07:33:05;;;;;;;8.00;5.90;;;;;;;;;;10293370;28;21260;-86
2022/09/14 07:38:07;;;;;;;7.23;6.17;;;;;;;;;;10325914;28;20980;-85
2022/09/14 07:43:09;;;;;;;7.47;6.67;;;;;;;;;;10324038;28;20503;-84
2022/09/14 07:48:12;;;;;;;5.72;4.57;;;;;;;;;;10323941;28;20496;-86
2022/09/14 07:53:14;;;;;;;5.80;4.70;;;;;;;;;;10299156;28;20832;-86
2022/09/14 07:58:15;;;;;;;5.70;4.90;;;;;;;;;;10322117;28;20924;-86
2022/09/14 08:03:19;;;;;;;5.22;4.25;;;;;;;;;;10299036;28;20511;-85
2022/09/14 08:08:21;;;;;;;8.10;4.57;;;;;;;;;;10311036;28;20421;-86
2022/09/14 08:13:22;;;;;;;6.63;4.20;;;;;;;;;;10322241;28;20416;-86
2022/09/14 08:18:26;;;;;;;8.50;4.28;;;;;;;;;;10320360;28;20515;-86
2022/09/14 08:23:27;;;;;;;6.03;4.10;;;;;;;;;;10320421;28;20411;-85
2022/09/14 08:28:29;;;;;;;5.33;4.63;;;;;;;;;;10319705;28;20520;-84
2022/09/14 08:33:34;;;;;;;4.95;4.07;;;;;;;;;;10319812;28;20409;-86
2022/09/14 08:38:37;;;;;;;5.10;4.57;;;;;;;;;;10318277;28;20511;-86
2022/09/14 08:43:39;;;;;;;7.23;5.37;;;;;;;;;;10305960;28;20766;-85
2022/09/14 08:48:47;;;;;;;6.53;5.35;;;;;;;;;;10317960;28;20446;-86
2022/09/14 08:53:52;;;;;;;6.35;4.28;;;;;;;;;;10316360;28;20417;-86
2022/09/14 08:59:18;;;;;;;7.97;4.60;;;;;;;;;;10304728;28;20409;-86
2022/09/14 09:04:41;;;;;;;8.32;4.05;;;;;;;;;;10322456;28;20413;-86
2022/09/14 09:09:46;;;;;;;6.47;3.00;;;;;;;;;;10320467;28;20769;-85
2022/09/14 09:14:51;;;;;;;4.70;3.60;;;;;;;;;;10319962;28;20426;-86
2022/09/14 09:20:02;;;;;;;3.80;3.30;;;;;;;;;;10314451;28;20415;-86
2022/09/14 09:25:10;;;;;;;3.75;2.92;;;;;;;;;;10306306;28;20412;-86
2022/09/14 09:30:14;;;;;;;3.80;3.40;;;;;;;;;;10280656;28;20441;-86
2022/09/14 09:35:22;;;;;;;3.97;3.58;;;;;;;;;;10307527;28;20456;-86
2022/09/14 09:40:31;;;;;;;4.22;3.30;;;;;;;;;;10315881;28;20492;-86
2022/09/14 09:45:55;;;;;;;4.90;3.47;;;;;;;;;;10287846;28;20511;-84
2022/09/14 09:51:09;;;;;;;5.82;3.40;;;;;;;;;;10280284;28;20506;-85
2022/09/14 09:56:18;;;;;;;4.43;3.05;;;;;;;;;;10317410;28;20519;-86
2022/09/14 10:01:27;;;;;;;6.72;3.47;;;;;;;;;;10300013;28;20520;-85
2022/09/14 10:06:31;;;;;;;5.78;3.47;;;;;;;;;;10317554;28;20885;-85
2022/09/14 10:11:36;;;;;;;5.53;3.75;;;;;;;;;;10284178;28;20445;-86
2022/09/14 10:16:40;;;;;;;4.70;3.60;;;;;;;;;;10284501;28;20430;-86
2022/09/14 10:22:25;;;;;;;5.07;4.07;;;;;;;;;;10281910;28;20496;-84
2022/09/14 10:27:38;;;;;;;5.87;4.67;;;;;;;;;;10255815;28;20411;-86
2022/09/14 10:32:43;;;;;;;5.85;4.53;;;;;;;;;;10277452;28;20658;-86
2022/09/14 10:38:02;;;;;;;9.05;5.47;;;;;;;;;;10274685;28;20422;-86
2022/09/14 10:43:15;;;;;;;6.57;5.60;;;;;;;;;;10281100;28;20441;-84
2022/09/14 10:48:48;;;;;;;7.70;6.50;;;;;;;;;;10276263;28;21108;-85
2022/09/14 10:54:01;;;;;;;9.37;5.67;;;;;;;;;;10278138;28;20422;-85
2022/09/14 10:59:26;;;;;;;9.10;5.30;;;;;;;;;;10278645;28;20964;-84
2022/09/14 11:04:48;;;;;;;10.57;6.07;;;;;;;;;;10279663;28;20456;-85
2022/09/14 11:10:03;;;;;;;7.77;4.97;;;;;;;;;;10277868;28;20414;-83
2022/09/14 11:15:17;;;;;;;6.95;4.60;;;;;;;;;;10281609;28;20590;-85
2022/09/14 11:20:31;;;;;;;7.57;4.80;;;;;;;;;;10285042;28;20418;-85
2022/09/14 11:25:45;;;;;;;8.63;5.40;;;;;;;;;;10283810;28;20415;-85
2022/09/14 11:30:55;;;;;;;7.40;5.00;;;;;;;;;;10284740;28;20418;-86
2022/09/14 11:36:04;;;;;;;6.57;5.10;;;;;;;;;;10284304;28;20434;-84
2022/09/14 11:41:20;;;;;;;5.53;4.20;;;;;;;;;;10280061;28;20485;-84
2022/09/14 11:46:32;;;;;;;7.82;4.43;;;;;;;;;;10286007;28;20743;-85
2022/09/14 11:51:41;;;;;;;8.10;5.00;;;;;;;;;;10276926;28;20826;-86
2022/09/14 11:56:55;;;;;;;5.73;4.50;;;;;;;;;;10284151;28;20831;-86
2022/09/14 12:02:52;;;;;;;5.00;3.77;;;;;;;;;;10265591;28;20506;-85
2022/09/14 12:08:03;;;;;;;6.13;3.80;;;;;;;;;;10278529;28;20408;-85
2022/09/14 12:13:23;;;;;;;6.97;3.70;;;;;;;;;;10271982;28;20435;-84
2022/09/14 12:18:30;;;;;;;7.22;4.22;;;;;;;;;;10273071;28;20517;-84
2022/09/14 12:23:44;;;;;;;5.15;3.47;;;;;;;;;;10283028;28;20832;-84
2022/09/14 12:28:55;;;;;;;6.87;3.70;;;;;;;;;;10278190;28;20419;-86
2022/09/14 12:34:30;;;;;;;5.00;3.22;;;;;;;;;;10279617;28;20509;-84
2022/09/14 12:39:37;;;;;;;4.10;3.67;;;;;;;;;;10273044;28;20407;-86
2022/09/14 12:44:45;;;;;;;7.15;3.92;;;;;;;;;;10270021;28;20727;-84
2022/09/14 12:49:48;;;;;;;5.78;4.40;;;;;;;;;;10272960;28;20915;-86
2022/09/14 12:55:04;;;;;;;6.17;4.83;;;;;;;;;;10274128;28;21053;-86
2022/09/14 13:00:18;;;;;;;8.80;3.60;;;;;;;;;;10272782;28;20450;-85
2022/09/14 13:05:26;;;;;;;5.43;4.07;;;;;;;;;;10273396;28;20510;-84
2022/09/14 13:10:34;;;;;;;5.15;3.90;;;;;;;;;;10272142;28;20505;-86
2022/09/14 13:15:51;;;;;;;7.90;3.47;;;;;;;;;;10275364;28;20461;-85
2022/09/14 13:21:00;;;;;;;8.15;4.28;;;;;;;;;;10269145;28;20894;-86
2022/09/14 13:26:13;;;;;;;9.82;4.30;;;;;;;;;;10281628;28;20570;-85
2022/09/14 13:31:25;;;;;;;4.73;3.37;;;;;;;;;;10280576;28;20410;-85
2022/09/14 13:36:32;;;;;;;7.67;2.57;;;;;;;;;;10278001;28;20828;-84
2022/09/14 13:41:43;;;;;;;4.25;2.38;;;;;;;;;;10284051;28;20414;-86
2022/09/14 13:47:39;;;;;;;5.50;2.50;;;;;;;;;;10286160;28;20668;-85
2022/09/14 13:52:44;;;;;;;6.30;2.97;;;;;;;;;;10272347;28;20413;-85
2022/09/14 13:58:23;;;;;;;5.07;2.60;;;;;;;;;;10277828;28;20961;-85
2022/09/14 14:03:36;;;;;;;3.57;2.23;;;;;;;;;;10278131;28;20411;-86
2022/09/14 14:08:44;;;;;;;2.72;1.77;;;;;;;;;;10280698;28;20426;-86
2022/09/14 14:13:53;;;;;;;4.13;1.95;;;;;;;;;;10277579;28;21330;-86
2022/09/14 14:18:59;;;;;;;4.33;1.97;;;;;;;;;;10276574;28;20427;-83
2022/09/14 14:24:30;;;;;;;4.15;1.95;;;;;;;;;;10275523;28;20422;-84
2022/09/14 14:29:32;;;;;;;3.45;2.20;;;;;;;;;;10275330;28;20417;-84
2022/09/14 14:34:34;;;;;;;5.43;2.15;;;;;;;;;;10272489;28;20421;-84
2022/09/14 14:39:38;;;;;;;4.07;2.00;;;;;;;;;;10266490;28;20691;-84
2022/09/14 14:44:40;;;;;;;3.60;2.25;;;;;;;;;;10279225;28;20409;-84
2022/09/14 14:49:43;;;;;;;3.05;1.90;;;;;;;;;;10270907;28;20430;-86
2022/09/14 14:54:48;;;;;;;3.33;2.30;;;;;;;;;;10274700;28;20410;-85
2022/09/14 14:59:51;;;;;;;3.85;2.30;;;;;;;;;;10274090;28;20521;-85
2022/09/14 15:04:55;;;;;;;4.27;2.40;;;;;;;;;;10279010;28;20883;-83
2022/09/14 15:10:00;;;;;;;3.10;2.10;;;;;;;;;;10276395;28;20882;-86
2022/09/14 15:15:03;;;;;;;4.73;2.17;;;;;;;;;;10278051;28;20608;-85
2022/09/14 15:20:09;;;;;;;5.30;1.95;;;;;;;;;;10281498;28;20428;-87
2022/09/14 15:25:16;;;;;;;3.80;2.20;;;;;;;;;;10272372;28;20414;-85
2022/09/14 15:30:20;;;;;;;4.13;2.50;;;;;;;;;;10280088;28;20410;-86
2022/09/14 15:35:23;;;;;;;6.63;2.63;;;;;;;;;;10283506;28;20408;-85
2022/09/14 15:40:28;;;;;;;3.50;2.58;;;;;;;;;;10285730;28;20962;-74
2022/09/14 15:45:31;;;;;;;4.80;2.70;;;;;;;;;;10278789;28;20431;-87
2022/09/14 15:50:38;;;;;;;4.57;2.85;;;;;;;;;;10274871;28;20743;-88
2022/09/14 15:55:47;;;;;;;5.20;3.00;;;;;;;;;;10277204;28;20510;-86
2022/09/14 16:00:53;;;;;;;5.32;3.08;;;;;;;;;;10281837;28;21006;-84
2022/09/14 16:06:00;;;;;;;5.87;2.90;;;;;;;;;;10283684;28;20921;-85
2022/09/14 16:11:09;;;;;;;4.60;3.27;;;;;;;;;;10277424;28;20441;-86
2022/09/14 16:16:17;;;;;;;4.15;2.88;;;;;;;;;;10269645;28;20772;-87
2022/09/14 16:21:24;;;;;;;7.20;3.30;;;;;;;;;;10275795;28;20414;-86
2022/09/14 16:26:34;;;;;;;5.32;3.53;;;;;;;;;;10272674;28;20418;-84
2022/09/14 16:31:42;;;;;;;5.35;3.35;;;;;;;;;;10281245;28;20422;-87
2022/09/14 16:36:45;;;;;;;5.30;3.30;;;;;;;;;;10271752;28;20517;-86
2022/09/14 16:41:50;;;;;;;5.32;3.58;;;;;;;;;;10268197;28;20426;-86
2022/09/14 16:46:56;;;;;;;6.82;3.92;;;;;;;;;;10273351;28;20465;-83
2022/09/14 16:52:01;;;;;;;7.28;4.53;;;;;;;;;;10271932;28;20412;-87
2022/09/14 16:57:11;;;;;;;8.50;4.80;;;;;;;;;;10272579;28;21823;-85
2022/09/14 17:02:17;;;;;;;8.00;4.97;;;;;;;;;;10267017;28;20546;-85
2022/09/14 17:07:23;;;;;;;6.55;4.80;;;;;;;;;;10262799;28;20417;-86
2022/09/14 17:12:31;;;;;;;6.88;4.93;;;;;;;;;;10263482;28;20431;-71
2022/09/14 17:17:38;;;;;;;6.95;5.00;;;;;;;;;;10259796;28;20799;-84
2022/09/14 17:22:44;;;;;;;6.78;5.00;;;;;;;;;;10269231;28;20414;-86
2022/09/14 17:27:55;;;;;;;7.40;4.60;;;;;;;;;;10257019;28;20796;-85
2022/09/14 17:33:01;;;;;;;6.85;5.15;;;;;;;;;;10260858;28;20421;-86
2022/09/14 17:38:07;;;;;;;7.43;5.30;;;;;;;;;;10263655;28;20438;-85
2022/09/14 17:43:15;;;;;;;7.33;5.20;;;;;;;;;;10261548;28;20417;-85
2022/09/14 17:48:21;;;;;;;9.47;5.93;;;;;;;;;;10259060;28;20471;-83
2022/09/14 17:53:27;;;;;;;6.23;5.63;;;;;;;;;;10258545;28;20441;-85
2022/09/14 17:58:35;;;;;;;7.77;5.50;;;;;;;;;;10256327;28;20427;-84
2022/09/14 18:03:42;;;;;;;9.18;5.55;;;;;;;;;;10255242;28;20416;-84
2022/09/14 18:08:47;;;;;;;7.70;6.40;;;;;;;;;;10253485;28;20406;-83
2022/09/14 18:13:55;;;;;;;8.33;6.23;;;;;;;;;;10257339;28;21004;-83
2022/09/14 18:19:01;;;;;;;7.03;6.20;;;;;;;;;;10258813;28;20975;-85
2022/09/14 18:24:08;;;;;;;10.17;6.20;;;;;;;;;;10260663;28;20811;-84
2022/09/14 18:29:22;;;;;;;7.90;6.00;;;;;;;;;;10266299;28;20406;-86
2022/09/14 18:34:29;;;;;;;11.98;6.65;;;;;;;;;;10270819;28;20422;-85
2022/09/14 18:39:35;;;;;;;8.38;6.45;;;;;;;;;;10273872;28;20430;-85
2022/09/14 18:44:42;;;;;;;7.47;6.53;;;;;;;;;;10260889;28;20421;-84
2022/09/14 18:49:48;;;;;;;14.13;7.40;;;;;;;;;;10258500;28;20481;-83
2022/09/14 18:54:54;;;;;;;9.73;6.82;;;;;;;;;;10257485;28;21190;-83
2022/09/14 19:00:02;;;;;;;9.27;6.80;;;;;;;;;;10331196;22;20427;-79
2022/09/14 19:05:08;;;;;;;9.93;6.70;;;;;;;;;;10352292;28;20485;-79
2022/09/14 19:10:13;;;;;;;9.18;7.18;;;;;;;;;;10354241;28;20502;-80
2022/09/14 19:15:20;;;;;;;14.27;7.80;;;;;;;;;;10351677;28;20834;-78
2022/09/14 19:20:26;;;;;;;11.70;7.30;;;;;;;;;;10353794;28;20431;-79
2022/09/14 19:25:30;;;;;;;10.95;7.07;;;;;;;;;;10351927;28;20603;-80
2022/09/14 19:30:40;;;;;;;9.38;6.85;;;;;;;;;;10353416;28;20887;-80
2022/09/14 19:35:45;;;;;;;9.45;6.85;;;;;;;;;;10354752;28;20407;-79
2022/09/14 19:40:54;;;;;;;8.10;6.53;;;;;;;;;;10353432;28;20513;-79
2022/09/14 19:46:03;;;;;;;7.63;6.43;;;;;;;;;;10355849;28;20403;-80
2022/09/14 19:51:10;;;;;;;9.75;7.72;;;;;;;;;;10354976;28;20405;-80
2022/09/14 19:56:17;;;;;;;13.25;11.02;;;;;;;;;;10355503;28;20415;-79
2022/09/14 20:01:26;;;;;;;14.18;12.05;;;;;;;;;;10354238;28;20481;-79
2022/09/14 20:06:33;;;;;;;15.00;12.70;;;;;;;;;;10357835;28;20799;-78
2022/09/14 20:11:40;;;;;;;15.07;13.10;;;;;;;;;;10354178;28;20408;-78
2022/09/14 20:16:48;;;;;;;15.27;13.10;;;;;;;;;;10359816;28;20814;-77
2022/09/14 20:21:55;;;;;;;14.10;12.68;;;;;;;;;;10357897;28;20450;-79
2022/09/14 20:27:01;;;;;;;14.75;13.25;;;;;;;;;;10355073;28;20407;-79
2022/09/14 20:32:10;;;;;;;15.40;12.98;;;;;;;;;;10356947;28;20403;-79
2022/09/14 20:37:17;;;;;;;16.17;13.23;;;;;;;;;;10357280;28;20481;-78
2022/09/14 20:42:22;;;;;;;15.77;13.07;;;;;;;;;;10349804;28;20407;-80
2022/09/14 20:47:30;;;;;;;15.60;14.00;;;;;;;;;;10354515;28;20410;-81
2022/09/14 20:52:37;;;;;;;15.23;12.60;;;;;;;;;;10357339;28;20771;-82
2022/09/14 20:57:42;;;;;;;16.67;11.73;;;;;;;;;;10351838;28;20512;-81
2022/09/14 21:02:53;;;;;;;13.17;11.13;;;;;;;;;;10356646;28;20403;-80
2022/09/14 21:07:59;;;;;;;14.18;10.40;;;;;;;;;;10357169;28;20408;-81
2022/09/14 21:13:05;;;;;;;13.10;10.63;;;;;;;;;;10353073;28;20410;-80
2022/09/14 21:18:12;;;;;;;12.60;9.85;;;;;;;;;;10349536;28;20434;-78
2022/09/14 21:23:18;;;;;;;12.90;10.50;;;;;;;;;;10355666;28;20864;-82
2022/09/14 21:28:24;;;;;;;13.65;12.02;;;;;;;;;;10360067;28;20403;-81
2022/09/14 21:33:28;;;;;;;15.25;11.77;;;;;;;;;;10357066;28;20441;-81
2022/09/14 21:38:30;;;;;;;14.73;12.30;;;;;;;;;;10364808;28;20426;-81
2022/09/14 21:43:33;;;;;;;17.03;13.10;;;;;;;;;;10357261;28;20435;-81
2022/09/14 21:48:37;;;;;;;16.00;13.45;;;;;;;;;;10360854;28;20410;-81
2022/09/14 21:53:39;;;;;;;18.88;13.60;;;;;;;;;;10355801;28;20409;-80
2022/09/14 21:58:41;;;;;;;15.43;13.18;;;;;;;;;;10359706;28;21325;-80
2022/09/14 22:03:45;;;;;;;16.20;14.20;;;;;;;;;;10358824;28;20390;-79
2022/09/14 22:08:49;;;;;;;16.67;13.85;;;;;;;;;;10358912;28;21082;-79
2022/09/14 22:13:53;;;;;;;15.73;13.32;;;;;;;;;;10349447;28;20409;-80
2022/09/14 22:19:00;;;;;;;17.47;13.57;;;;;;;;;;10348067;28;20427;-81
2022/09/14 22:24:04;;;;;;;17.02;13.45;;;;;;;;;;10346340;28;20877;-80
2022/09/14 22:29:08;;;;;;;14.93;13.27;;;;;;;;;;10355471;28;20737;-81
2022/09/14 22:34:12;;;;;;;15.88;14.10;;;;;;;;;;10348804;28;20407;-82
2022/09/14 22:39:14;;;;;;;16.15;13.70;;;;;;;;;;10372401;28;20462;-80
2022/09/14 22:44:15;;;;;;;16.83;13.95;;;;;;;;;;10358725;28;20445;-79
2022/09/14 22:49:19;;;;;;;17.42;14.48;;;;;;;;;;10366184;28;20487;-80
2022/09/14 22:54:21;;;;;;;18.17;15.02;;;;;;;;;;10361159;28;20439;-81
2022/09/14 22:59:23;;;;;;;17.90;16.00;;;;;;;;;;10353418;28;20454;-79
2022/09/14 23:04:26;;;;;;;17.33;15.48;;;;;;;;;;10361458;28;20438;-80
2022/09/14 23:09:28;;;;;;;17.77;15.87;;;;;;;;;;10357247;28;20410;-81
2022/09/14 23:14:30;;;;;;;17.25;15.40;;;;;;;;;;10362846;28;20502;-81
2022/09/14 23:19:33;;;;;;;19.63;16.47;;;;;;;;;;10358810;28;20431;-81
2022/09/14 23:24:35;;;;;;;21.08;17.58;;;;;;;;;;10367222;28;20403;-81
2022/09/14 23:29:37;;;;;;;19.13;17.23;;;;;;;;;;10363391;28;20486;-82
2022/09/14 23:34:40;;;;;;;19.07;16.53;;;;;;;;;;10364487;28;20941;-81
2022/09/14 23:39:42;;;;;;;18.92;16.92;;;;;;;;;;10363501;28;20510;-81
2022/09/14 23:44:44;;;;;;;19.87;17.30;;;;;;;;;;10364383;28;20446;-82
2022/09/14 23:49:47;;;;;;;19.00;16.60;;;;;;;;;;10358163;28;20500;-82
2022/09/14 23:54:49;;;;;;;19.90;17.85;;;;;;;;;;10362183;28;20431;-78
2022/09/14 23:59:51;;;;;;;19.75;16.33;;;;;;;;;;10355085;28;20814;-81
